sensor_id;sensor_type;location;lat;lon;timestamp;P1;durP1;ratioP1;P2;durP2;ratioP2
74551;SDS011;63025;55.472;38.432;2023-06-14T00:01:58;6.82;;;3.50;;
74551;SDS011;63025;55.472;38.432;2023-06-14T00:04:23;8.57;;;4.00;;
74551;SDS011;63025;55.472;38.432;2023-06-14T00:06:50;7.75;;;4.18;;
74551;SDS011;63025;55.472;38.432;2023-06-14T00:09:16;5.38;;;3.50;;
74551;SDS011;63025;55.472;38.432;2023-06-14T00:11:43;7.53;;;3.90;;
74551;SDS011;63025;55.472;38.432;2023-06-14T00:14:10;8.85;;;4.30;;
74551;SDS011;63025;55.472;38.432;2023-06-14T00:16:36;7.13;;;3.60;;
74551;SDS011;63025;55.472;38.432;2023-06-14T00:19:04;6.07;;;3.75;;
74551;SDS011;63025;55.472;38.432;2023-06-14T00:21:30;6.70;;;3.83;;
74551;SDS011;63025;55.472;38.432;2023-06-14T00:23:57;7.85;;;4.13;;
74551;SDS011;63025;55.472;38.432;2023-06-14T00:26:24;8.18;;;3.63;;
74551;SDS011;63025;55.472;38.432;2023-06-14T00:28:53;6.25;;;3.60;;
74551;SDS011;63025;55.472;38.432;2023-06-14T00:31:20;7.00;;;3.92;;
74551;SDS011;63025;55.472;38.432;2023-06-14T00:33:46;7.80;;;4.05;;
74551;SDS011;63025;55.472;38.432;2023-06-14T00:36:12;11.90;;;4.10;;
74551;SDS011;63025;55.472;38.432;2023-06-14T00:38:38;6.13;;;3.80;;
74551;SDS011;63025;55.472;38.432;2023-06-14T00:41:04;6.97;;;4.15;;
74551;SDS011;63025;55.472;38.432;2023-06-14T00:43:30;7.47;;;4.28;;
74551;SDS011;63025;55.472;38.432;2023-06-14T00:45:55;11.23;;;3.92;;
74551;SDS011;63025;55.472;38.432;2023-06-14T00:48:21;8.27;;;3.97;;
74551;SDS011;63025;55.472;38.432;2023-06-14T00:50:49;7.50;;;4.07;;
74551;SDS011;63025;55.472;38.432;2023-06-14T00:53:15;6.80;;;3.78;;
74551;SDS011;63025;55.472;38.432;2023-06-14T00:55:48;7.72;;;4.20;;
74551;SDS011;63025;55.472;38.432;2023-06-14T00:58:16;8.48;;;3.85;;
74551;SDS011;63025;55.472;38.432;2023-06-14T01:00:42;8.88;;;4.03;;
74551;SDS011;63025;55.472;38.432;2023-06-14T01:03:10;7.15;;;3.90;;
74551;SDS011;63025;55.472;38.432;2023-06-14T01:05:38;7.97;;;4.15;;
74551;SDS011;63025;55.472;38.432;2023-06-14T01:10:56;9.77;;;4.18;;
74551;SDS011;63025;55.472;38.432;2023-06-14T01:13:36;6.78;;;3.80;;
74551;SDS011;63025;55.472;38.432;2023-06-14T01:16:04;6.10;;;3.83;;
74551;SDS011;63025;55.472;38.432;2023-06-14T01:18:32;9.98;;;4.28;;
74551;SDS011;63025;55.472;38.432;2023-06-14T01:21:01;6.18;;;4.03;;
74551;SDS011;63025;55.472;38.432;2023-06-14T01:23:31;6.93;;;3.95;;
74551;SDS011;63025;55.472;38.432;2023-06-14T01:25:59;6.53;;;3.97;;
74551;SDS011;63025;55.472;38.432;2023-06-14T01:28:31;7.35;;;3.67;;
74551;SDS011;63025;55.472;38.432;2023-06-14T01:31:00;8.70;;;4.20;;
74551;SDS011;63025;55.472;38.432;2023-06-14T01:33:30;6.88;;;3.90;;
74551;SDS011;63025;55.472;38.432;2023-06-14T01:35:57;8.68;;;4.20;;
74551;SDS011;63025;55.472;38.432;2023-06-14T01:38:24;6.38;;;3.75;;
74551;SDS011;63025;55.472;38.432;2023-06-14T01:40:53;5.82;;;3.60;;
74551;SDS011;63025;55.472;38.432;2023-06-14T01:43:21;7.05;;;3.80;;
74551;SDS011;63025;55.472;38.432;2023-06-14T01:45:48;6.20;;;4.03;;
74551;SDS011;63025;55.472;38.432;2023-06-14T01:48:17;6.15;;;3.70;;
74551;SDS011;63025;55.472;38.432;2023-06-14T01:50:45;6.63;;;3.60;;
74551;SDS011;63025;55.472;38.432;2023-06-14T01:53:11;7.88;;;4.10;;
74551;SDS011;63025;55.472;38.432;2023-06-14T01:55:37;8.13;;;4.15;;
74551;SDS011;63025;55.472;38.432;2023-06-14T01:58:06;8.27;;;3.70;;
74551;SDS011;63025;55.472;38.432;2023-06-14T02:00:32;8.95;;;4.47;;
74551;SDS011;63025;55.472;38.432;2023-06-14T02:02:59;6.72;;;3.90;;
74551;SDS011;63025;55.472;38.432;2023-06-14T02:05:26;7.20;;;4.43;;
74551;SDS011;63025;55.472;38.432;2023-06-14T02:07:53;8.18;;;4.20;;
74551;SDS011;63025;55.472;38.432;2023-06-14T02:10:20;6.45;;;3.78;;
74551;SDS011;63025;55.472;38.432;2023-06-14T02:12:48;7.50;;;4.10;;
74551;SDS011;63025;55.472;38.432;2023-06-14T02:15:14;6.45;;;4.10;;
74551;SDS011;63025;55.472;38.432;2023-06-14T02:17:45;6.38;;;4.03;;
74551;SDS011;63025;55.472;38.432;2023-06-14T02:20:17;10.35;;;4.47;;
74551;SDS011;63025;55.472;38.432;2023-06-14T02:22:44;9.30;;;3.60;;
74551;SDS011;63025;55.472;38.432;2023-06-14T02:25:11;7.13;;;3.80;;
74551;SDS011;63025;55.472;38.432;2023-06-14T02:27:40;6.68;;;4.00;;
74551;SDS011;63025;55.472;38.432;2023-06-14T02:30:06;8.57;;;3.90;;
74551;SDS011;63025;55.472;38.432;2023-06-14T02:32:34;6.70;;;3.88;;
74551;SDS011;63025;55.472;38.432;2023-06-14T02:35:02;8.43;;;3.90;;
74551;SDS011;63025;55.472;38.432;2023-06-14T02:37:32;8.55;;;3.95;;
74551;SDS011;63025;55.472;38.432;2023-06-14T02:39:58;7.95;;;3.83;;
74551;SDS011;63025;55.472;38.432;2023-06-14T02:42:25;10.25;;;4.10;;
74551;SDS011;63025;55.472;38.432;2023-06-14T02:44:51;6.07;;;3.85;;
74551;SDS011;63025;55.472;38.432;2023-06-14T02:47:18;8.43;;;3.92;;
74551;SDS011;63025;55.472;38.432;2023-06-14T02:49:45;8.98;;;4.20;;
74551;SDS011;63025;55.472;38.432;2023-06-14T02:52:15;7.63;;;4.15;;
74551;SDS011;63025;55.472;38.432;2023-06-14T02:54:41;7.55;;;4.18;;
74551;SDS011;63025;55.472;38.432;2023-06-14T02:57:09;6.00;;;4.07;;
74551;SDS011;63025;55.472;38.432;2023-06-14T02:59:37;6.53;;;3.45;;
74551;SDS011;63025;55.472;38.432;2023-06-14T03:02:03;6.10;;;4.18;;
74551;SDS011;63025;55.472;38.432;2023-06-14T03:04:31;8.75;;;4.75;;
74551;SDS011;63025;55.472;38.432;2023-06-14T03:07:05;7.30;;;4.18;;
74551;SDS011;63025;55.472;38.432;2023-06-14T03:09:36;8.00;;;4.40;;
74551;SDS011;63025;55.472;38.432;2023-06-14T03:12:03;6.88;;;4.57;;
74551;SDS011;63025;55.472;38.432;2023-06-14T03:14:32;7.13;;;4.03;;
74551;SDS011;63025;55.472;38.432;2023-06-14T03:16:59;11.57;;;4.20;;
74551;SDS011;63025;55.472;38.432;2023-06-14T03:19:27;6.97;;;4.32;;
74551;SDS011;63025;55.472;38.432;2023-06-14T03:21:54;10.63;;;4.30;;
74551;SDS011;63025;55.472;38.432;2023-06-14T03:24:24;9.68;;;4.38;;
74551;SDS011;63025;55.472;38.432;2023-06-14T03:26:54;7.95;;;4.10;;
74551;SDS011;63025;55.472;38.432;2023-06-14T03:29:21;6.97;;;3.97;;
74551;SDS011;63025;55.472;38.432;2023-06-14T03:32:00;7.45;;;4.05;;
74551;SDS011;63025;55.472;38.432;2023-06-14T03:34:38;8.88;;;3.83;;
74551;SDS011;63025;55.472;38.432;2023-06-14T03:37:05;6.28;;;3.78;;
74551;SDS011;63025;55.472;38.432;2023-06-14T03:39:31;9.85;;;4.35;;
74551;SDS011;63025;55.472;38.432;2023-06-14T03:41:57;6.15;;;3.50;;
74551;SDS011;63025;55.472;38.432;2023-06-14T03:44:23;7.40;;;3.63;;
74551;SDS011;63025;55.472;38.432;2023-06-14T03:46:50;5.75;;;3.63;;
74551;SDS011;63025;55.472;38.432;2023-06-14T03:49:16;8.40;;;3.70;;
74551;SDS011;63025;55.472;38.432;2023-06-14T03:51:44;6.57;;;3.20;;
74551;SDS011;63025;55.472;38.432;2023-06-14T03:54:11;6.70;;;3.50;;
74551;SDS011;63025;55.472;38.432;2023-06-14T03:56:38;10.60;;;3.70;;
74551;SDS011;63025;55.472;38.432;2023-06-14T03:59:06;8.68;;;3.67;;
74551;SDS011;63025;55.472;38.432;2023-06-14T04:01:32;6.38;;;3.50;;
74551;SDS011;63025;55.472;38.432;2023-06-14T04:04:00;7.43;;;3.53;;
74551;SDS011;63025;55.472;38.432;2023-06-14T04:06:26;4.70;;;3.17;;
74551;SDS011;63025;55.472;38.432;2023-06-14T04:08:59;5.18;;;3.17;;
74551;SDS011;63025;55.472;38.432;2023-06-14T04:11:30;7.43;;;3.28;;
74551;SDS011;63025;55.472;38.432;2023-06-14T04:13:58;6.78;;;3.10;;
74551;SDS011;63025;55.472;38.432;2023-06-14T04:16:25;5.75;;;3.20;;
74551;SDS011;63025;55.472;38.432;2023-06-14T04:18:52;10.70;;;3.85;;
74551;SDS011;63025;55.472;38.432;2023-06-14T04:21:18;8.02;;;3.25;;
74551;SDS011;63025;55.472;38.432;2023-06-14T04:23:45;8.13;;;3.05;;
74551;SDS011;63025;55.472;38.432;2023-06-14T04:26:13;7.60;;;3.67;;
74551;SDS011;63025;55.472;38.432;2023-06-14T04:28:40;7.57;;;3.28;;
74551;SDS011;63025;55.472;38.432;2023-06-14T04:31:07;6.90;;;3.30;;
74551;SDS011;63025;55.472;38.432;2023-06-14T04:33:35;5.78;;;3.08;;
74551;SDS011;63025;55.472;38.432;2023-06-14T04:36:10;6.15;;;3.45;;
74551;SDS011;63025;55.472;38.432;2023-06-14T04:38:39;6.15;;;3.03;;
74551;SDS011;63025;55.472;38.432;2023-06-14T04:41:07;4.90;;;3.03;;
74551;SDS011;63025;55.472;38.432;2023-06-14T04:43:37;6.25;;;3.00;;
74551;SDS011;63025;55.472;38.432;2023-06-14T04:46:05;11.02;;;3.28;;
74551;SDS011;63025;55.472;38.432;2023-06-14T04:48:31;7.32;;;3.00;;
74551;SDS011;63025;55.472;38.432;2023-06-14T04:50:57;6.35;;;2.80;;
74551;SDS011;63025;55.472;38.432;2023-06-14T04:53:23;5.30;;;3.03;;
74551;SDS011;63025;55.472;38.432;2023-06-14T04:55:52;9.93;;;3.17;;
74551;SDS011;63025;55.472;38.432;2023-06-14T04:58:20;6.18;;;3.15;;
74551;SDS011;63025;55.472;38.432;2023-06-14T05:00:46;6.07;;;2.90;;
74551;SDS011;63025;55.472;38.432;2023-06-14T05:03:13;7.57;;;3.22;;
74551;SDS011;63025;55.472;38.432;2023-06-14T05:05:40;9.13;;;3.15;;
74551;SDS011;63025;55.472;38.432;2023-06-14T05:08:07;5.47;;;3.08;;
74551;SDS011;63025;55.472;38.432;2023-06-14T05:10:34;5.13;;;3.38;;
74551;SDS011;63025;55.472;38.432;2023-06-14T05:13:01;6.72;;;2.80;;
74551;SDS011;63025;55.472;38.432;2023-06-14T05:15:28;5.78;;;3.42;;
74551;SDS011;63025;55.472;38.432;2023-06-14T05:17:54;9.50;;;3.20;;
74551;SDS011;63025;55.472;38.432;2023-06-14T05:20:24;8.55;;;3.45;;
74551;SDS011;63025;55.472;38.432;2023-06-14T05:22:51;8.20;;;3.58;;
74551;SDS011;63025;55.472;38.432;2023-06-14T05:25:20;6.10;;;3.38;;
74551;SDS011;63025;55.472;38.432;2023-06-14T05:27:47;8.60;;;3.20;;
74551;SDS011;63025;55.472;38.432;2023-06-14T05:30:13;7.32;;;3.00;;
74551;SDS011;63025;55.472;38.432;2023-06-14T05:32:40;6.90;;;2.78;;
74551;SDS011;63025;55.472;38.432;2023-06-14T05:35:06;6.97;;;2.88;;
74551;SDS011;63025;55.472;38.432;2023-06-14T05:37:33;8.70;;;3.08;;
74551;SDS011;63025;55.472;38.432;2023-06-14T05:39:59;6.18;;;2.42;;
74551;SDS011;63025;55.472;38.432;2023-06-14T05:42:25;9.73;;;2.47;;
74551;SDS011;63025;55.472;38.432;2023-06-14T05:44:50;5.70;;;2.75;;
74551;SDS011;63025;55.472;38.432;2023-06-14T05:47:16;5.50;;;2.63;;
74551;SDS011;63025;55.472;38.432;2023-06-14T05:49:42;5.00;;;2.72;;
74551;SDS011;63025;55.472;38.432;2023-06-14T05:52:08;6.18;;;2.55;;
74551;SDS011;63025;55.472;38.432;2023-06-14T05:54:33;7.25;;;2.70;;
74551;SDS011;63025;55.472;38.432;2023-06-14T05:56:59;5.80;;;2.90;;
74551;SDS011;63025;55.472;38.432;2023-06-14T05:59:30;8.43;;;3.20;;
74551;SDS011;63025;55.472;38.432;2023-06-14T06:01:56;8.80;;;2.90;;
74551;SDS011;63025;55.472;38.432;2023-06-14T06:04:22;8.00;;;3.05;;
74551;SDS011;63025;55.472;38.432;2023-06-14T06:06:48;6.43;;;2.50;;
74551;SDS011;63025;55.472;38.432;2023-06-14T06:09:14;5.03;;;2.45;;
74551;SDS011;63025;55.472;38.432;2023-06-14T06:11:40;5.25;;;2.45;;
74551;SDS011;63025;55.472;38.432;2023-06-14T06:14:06;8.02;;;2.60;;
74551;SDS011;63025;55.472;38.432;2023-06-14T06:16:32;5.10;;;2.33;;
74551;SDS011;63025;55.472;38.432;2023-06-14T06:18:58;7.47;;;2.50;;
74551;SDS011;63025;55.472;38.432;2023-06-14T06:21:25;8.40;;;2.80;;
74551;SDS011;63025;55.472;38.432;2023-06-14T06:23:51;5.60;;;2.15;;
74551;SDS011;63025;55.472;38.432;2023-06-14T06:26:16;5.00;;;2.60;;
74551;SDS011;63025;55.472;38.432;2023-06-14T06:28:42;6.95;;;2.70;;
74551;SDS011;63025;55.472;38.432;2023-06-14T06:31:08;5.10;;;2.70;;
74551;SDS011;63025;55.472;38.432;2023-06-14T06:33:35;6.85;;;2.60;;
74551;SDS011;63025;55.472;38.432;2023-06-14T06:36:02;7.55;;;2.72;;
74551;SDS011;63025;55.472;38.432;2023-06-14T06:38:28;5.72;;;2.95;;
74551;SDS011;63025;55.472;38.432;2023-06-14T06:40:54;4.60;;;2.50;;
74551;SDS011;63025;55.472;38.432;2023-06-14T06:43:20;4.78;;;2.55;;
74551;SDS011;63025;55.472;38.432;2023-06-14T06:45:47;5.05;;;2.50;;
74551;SDS011;63025;55.472;38.432;2023-06-14T06:48:13;4.03;;;2.50;;
74551;SDS011;63025;55.472;38.432;2023-06-14T06:50:41;5.85;;;2.30;;
74551;SDS011;63025;55.472;38.432;2023-06-14T06:53:07;4.38;;;2.08;;
74551;SDS011;63025;55.472;38.432;2023-06-14T06:55:33;7.22;;;2.42;;
74551;SDS011;63025;55.472;38.432;2023-06-14T06:57:59;6.53;;;2.70;;
74551;SDS011;63025;55.472;38.432;2023-06-14T07:00:25;4.13;;;2.20;;
74551;SDS011;63025;55.472;38.432;2023-06-14T07:02:51;6.88;;;3.00;;
74551;SDS011;63025;55.472;38.432;2023-06-14T07:05:20;4.30;;;2.20;;
74551;SDS011;63025;55.472;38.432;2023-06-14T07:07:46;5.65;;;2.60;;
74551;SDS011;63025;55.472;38.432;2023-06-14T07:10:12;5.63;;;2.40;;
74551;SDS011;63025;55.472;38.432;2023-06-14T07:12:38;6.45;;;2.40;;
74551;SDS011;63025;55.472;38.432;2023-06-14T07:15:06;4.95;;;2.50;;
74551;SDS011;63025;55.472;38.432;2023-06-14T07:17:33;5.10;;;2.35;;
74551;SDS011;63025;55.472;38.432;2023-06-14T07:19:59;4.25;;;2.40;;
74551;SDS011;63025;55.472;38.432;2023-06-14T07:22:26;4.57;;;2.45;;
74551;SDS011;63025;55.472;38.432;2023-06-14T07:24:52;6.30;;;2.63;;
74551;SDS011;63025;55.472;38.432;2023-06-14T07:27:17;4.68;;;2.40;;
74551;SDS011;63025;55.472;38.432;2023-06-14T07:29:43;6.45;;;2.55;;
74551;SDS011;63025;55.472;38.432;2023-06-14T07:32:09;8.40;;;2.30;;
74551;SDS011;63025;55.472;38.432;2023-06-14T07:34:35;5.05;;;2.30;;
74551;SDS011;63025;55.472;38.432;2023-06-14T07:37:01;3.83;;;2.47;;
74551;SDS011;63025;55.472;38.432;2023-06-14T07:39:27;4.47;;;2.50;;
74551;SDS011;63025;55.472;38.432;2023-06-14T07:41:53;5.75;;;2.45;;
74551;SDS011;63025;55.472;38.432;2023-06-14T07:44:19;4.78;;;2.15;;
74551;SDS011;63025;55.472;38.432;2023-06-14T07:46:45;8.52;;;2.80;;
74551;SDS011;63025;55.472;38.432;2023-06-14T07:49:14;4.82;;;2.65;;
74551;SDS011;63025;55.472;38.432;2023-06-14T07:51:41;5.45;;;2.65;;
74551;SDS011;63025;55.472;38.432;2023-06-14T07:54:07;6.68;;;2.72;;
74551;SDS011;63025;55.472;38.432;2023-06-14T07:56:34;5.60;;;2.33;;
74551;SDS011;63025;55.472;38.432;2023-06-14T07:59:00;4.63;;;2.22;;
74551;SDS011;63025;55.472;38.432;2023-06-14T08:01:26;4.88;;;2.50;;
74551;SDS011;63025;55.472;38.432;2023-06-14T08:03:53;8.63;;;2.58;;
74551;SDS011;63025;55.472;38.432;2023-06-14T08:06:19;4.50;;;2.03;;
74551;SDS011;63025;55.472;38.432;2023-06-14T08:08:45;6.15;;;2.30;;
74551;SDS011;63025;55.472;38.432;2023-06-14T08:11:10;5.60;;;2.65;;
74551;SDS011;63025;55.472;38.432;2023-06-14T08:13:37;7.03;;;2.38;;
74551;SDS011;63025;55.472;38.432;2023-06-14T08:16:03;3.42;;;2.10;;
74551;SDS011;63025;55.472;38.432;2023-06-14T08:18:30;6.32;;;2.30;;
74551;SDS011;63025;55.472;38.432;2023-06-14T08:20:56;5.47;;;2.42;;
74551;SDS011;63025;55.472;38.432;2023-06-14T08:23:23;5.50;;;2.60;;
74551;SDS011;63025;55.472;38.432;2023-06-14T08:25:49;5.40;;;2.30;;
74551;SDS011;63025;55.472;38.432;2023-06-14T08:28:14;4.25;;;2.28;;
74551;SDS011;63025;55.472;38.432;2023-06-14T08:30:41;8.40;;;2.70;;
74551;SDS011;63025;55.472;38.432;2023-06-14T08:33:08;5.32;;;2.67;;
74551;SDS011;63025;55.472;38.432;2023-06-14T08:35:34;5.30;;;2.47;;
74551;SDS011;63025;55.472;38.432;2023-06-14T08:38:02;5.95;;;2.58;;
74551;SDS011;63025;55.472;38.432;2023-06-14T08:40:29;6.45;;;2.42;;
74551;SDS011;63025;55.472;38.432;2023-06-14T08:42:56;5.32;;;2.33;;
74551;SDS011;63025;55.472;38.432;2023-06-14T08:45:22;6.40;;;2.65;;
74551;SDS011;63025;55.472;38.432;2023-06-14T08:47:52;4.60;;;2.40;;
74551;SDS011;63025;55.472;38.432;2023-06-14T08:50:23;9.90;;;2.60;;
74551;SDS011;63025;55.472;38.432;2023-06-14T08:52:53;6.70;;;4.00;;
74551;SDS011;63025;55.472;38.432;2023-06-14T08:55:23;6.13;;;2.80;;
74551;SDS011;63025;55.472;38.432;2023-06-14T08:57:56;5.38;;;2.50;;
74551;SDS011;63025;55.472;38.432;2023-06-14T09:00:26;7.43;;;2.80;;
74551;SDS011;63025;55.472;38.432;2023-06-14T09:02:53;6.28;;;2.40;;
74551;SDS011;63025;55.472;38.432;2023-06-14T09:05:25;5.57;;;2.60;;
74551;SDS011;63025;55.472;38.432;2023-06-14T09:07:52;5.60;;;2.60;;
74551;SDS011;63025;55.472;38.432;2023-06-14T09:10:20;5.90;;;2.50;;
74551;SDS011;63025;55.472;38.432;2023-06-14T09:12:46;3.72;;;2.40;;
74551;SDS011;63025;55.472;38.432;2023-06-14T09:15:13;4.13;;;2.42;;
74551;SDS011;63025;55.472;38.432;2023-06-14T09:17:40;5.28;;;2.40;;
74551;SDS011;63025;55.472;38.432;2023-06-14T09:20:07;3.80;;;2.28;;
74551;SDS011;63025;55.472;38.432;2023-06-14T09:22:43;6.00;;;2.70;;
74551;SDS011;63025;55.472;38.432;2023-06-14T09:25:09;5.80;;;2.50;;
74551;SDS011;63025;55.472;38.432;2023-06-14T09:27:37;7.00;;;2.63;;
74551;SDS011;63025;55.472;38.432;2023-06-14T09:30:05;5.05;;;2.40;;
74551;SDS011;63025;55.472;38.432;2023-06-14T09:32:38;3.67;;;2.60;;
74551;SDS011;63025;55.472;38.432;2023-06-14T09:35:07;4.43;;;2.45;;
74551;SDS011;63025;55.472;38.432;2023-06-14T09:37:34;5.53;;;2.60;;
74551;SDS011;63025;55.472;38.432;2023-06-14T09:40:03;4.78;;;2.63;;
74551;SDS011;63025;55.472;38.432;2023-06-14T09:42:31;6.30;;;2.90;;
74551;SDS011;63025;55.472;38.432;2023-06-14T09:44:57;4.03;;;2.47;;
74551;SDS011;63025;55.472;38.432;2023-06-14T09:47:23;6.20;;;2.92;;
74551;SDS011;63025;55.472;38.432;2023-06-14T09:49:50;4.55;;;2.45;;
74551;SDS011;63025;55.472;38.432;2023-06-14T09:52:18;4.20;;;2.72;;
74551;SDS011;63025;55.472;38.432;2023-06-14T09:54:45;4.60;;;2.75;;
74551;SDS011;63025;55.472;38.432;2023-06-14T09:57:15;4.85;;;2.95;;
74551;SDS011;63025;55.472;38.432;2023-06-14T09:59:46;4.88;;;2.70;;
74551;SDS011;63025;55.472;38.432;2023-06-14T10:02:28;4.18;;;2.70;;
74551;SDS011;63025;55.472;38.432;2023-06-14T10:05:02;5.93;;;2.80;;
74551;SDS011;63025;55.472;38.432;2023-06-14T10:07:34;5.25;;;2.67;;
74551;SDS011;63025;55.472;38.432;2023-06-14T10:10:05;4.68;;;2.78;;
74551;SDS011;63025;55.472;38.432;2023-06-14T10:12:32;4.43;;;2.92;;
74551;SDS011;63025;55.472;38.432;2023-06-14T10:14:58;6.45;;;3.20;;
74551;SDS011;63025;55.472;38.432;2023-06-14T10:17:35;4.85;;;2.80;;
74551;SDS011;63025;55.472;38.432;2023-06-14T10:20:28;4.30;;;2.63;;
74551;SDS011;63025;55.472;38.432;2023-06-14T10:23:07;4.75;;;2.90;;
74551;SDS011;63025;55.472;38.432;2023-06-14T10:25:38;4.80;;;2.72;;
74551;SDS011;63025;55.472;38.432;2023-06-14T10:31:05;3.53;;;2.70;;
74551;SDS011;63025;55.472;38.432;2023-06-14T10:33:34;7.20;;;2.88;;
74551;SDS011;63025;55.472;38.432;2023-06-14T10:38:56;5.28;;;2.75;;
74551;SDS011;63025;55.472;38.432;2023-06-14T10:41:24;4.68;;;2.78;;
74551;SDS011;63025;55.472;38.432;2023-06-14T10:43:52;3.70;;;2.65;;
74551;SDS011;63025;55.472;38.432;2023-06-14T10:46:35;4.60;;;2.80;;
74551;SDS011;63025;55.472;38.432;2023-06-14T10:49:01;4.80;;;2.85;;
74551;SDS011;63025;55.472;38.432;2023-06-14T10:51:29;5.50;;;2.45;;
74551;SDS011;63025;55.472;38.432;2023-06-14T10:53:58;3.95;;;2.40;;
74551;SDS011;63025;55.472;38.432;2023-06-14T10:58:55;3.83;;;2.65;;
74551;SDS011;63025;55.472;38.432;2023-06-14T11:04:48;4.25;;;2.60;;
74551;SDS011;63025;55.472;38.432;2023-06-14T11:12:36;4.40;;;2.80;;
74551;SDS011;63025;55.472;38.432;2023-06-14T11:15:05;4.35;;;2.65;;
74551;SDS011;63025;55.472;38.432;2023-06-14T11:17:32;4.20;;;2.58;;
74551;SDS011;63025;55.472;38.432;2023-06-14T11:20:11;5.20;;;2.70;;
74551;SDS011;63025;55.472;38.432;2023-06-14T11:22:44;6.40;;;2.45;;
74551;SDS011;63025;55.472;38.432;2023-06-14T11:25:13;3.55;;;2.40;;
74551;SDS011;63025;55.472;38.432;2023-06-14T11:27:43;3.78;;;2.60;;
74551;SDS011;63025;55.472;38.432;2023-06-14T11:30:09;4.78;;;2.85;;
74551;SDS011;63025;55.472;38.432;2023-06-14T11:32:37;4.13;;;2.42;;
74551;SDS011;63025;55.472;38.432;2023-06-14T11:35:03;4.90;;;2.67;;
74551;SDS011;63025;55.472;38.432;2023-06-14T11:37:33;4.65;;;2.53;;
74551;SDS011;63025;55.472;38.432;2023-06-14T11:39:59;5.25;;;3.08;;
74551;SDS011;63025;55.472;38.432;2023-06-14T11:42:28;4.22;;;2.90;;
74551;SDS011;63025;55.472;38.432;2023-06-14T11:44:54;4.93;;;2.90;;
74551;SDS011;63025;55.472;38.432;2023-06-14T11:47:20;4.10;;;2.67;;
74551;SDS011;63025;55.472;38.432;2023-06-14T11:49:47;4.90;;;2.65;;
74551;SDS011;63025;55.472;38.432;2023-06-14T11:52:13;6.25;;;3.78;;
74551;SDS011;63025;55.472;38.432;2023-06-14T11:54:39;5.65;;;3.00;;
74551;SDS011;63025;55.472;38.432;2023-06-14T11:57:09;3.63;;;2.53;;
74551;SDS011;63025;55.472;38.432;2023-06-14T11:59:39;5.85;;;2.90;;
74551;SDS011;63025;55.472;38.432;2023-06-14T12:02:06;4.70;;;2.65;;
74551;SDS011;63025;55.472;38.432;2023-06-14T12:04:33;6.13;;;2.80;;
74551;SDS011;63025;55.472;38.432;2023-06-14T12:07:11;5.15;;;2.70;;
74551;SDS011;63025;55.472;38.432;2023-06-14T12:12:24;4.07;;;2.60;;
74551;SDS011;63025;55.472;38.432;2023-06-14T12:14:51;4.43;;;2.65;;
74551;SDS011;63025;55.472;38.432;2023-06-14T12:17:18;3.67;;;2.65;;
74551;SDS011;63025;55.472;38.432;2023-06-14T12:19:45;10.00;;;2.83;;
74551;SDS011;63025;55.472;38.432;2023-06-14T12:22:12;5.32;;;2.40;;
74551;SDS011;63025;55.472;38.432;2023-06-14T12:24:39;6.10;;;2.63;;
74551;SDS011;63025;55.472;38.432;2023-06-14T12:27:08;4.43;;;2.60;;
74551;SDS011;63025;55.472;38.432;2023-06-14T12:29:37;6.13;;;2.58;;
74551;SDS011;63025;55.472;38.432;2023-06-14T12:32:03;6.30;;;2.85;;
74551;SDS011;63025;55.472;38.432;2023-06-14T12:34:29;4.25;;;3.08;;
74551;SDS011;63025;55.472;38.432;2023-06-14T12:36:56;4.10;;;2.60;;
74551;SDS011;63025;55.472;38.432;2023-06-14T12:39:22;6.07;;;2.80;;
74551;SDS011;63025;55.472;38.432;2023-06-14T12:41:50;5.93;;;2.55;;
74551;SDS011;63025;55.472;38.432;2023-06-14T12:44:16;7.28;;;2.60;;
74551;SDS011;63025;55.472;38.432;2023-06-14T12:46:42;5.55;;;2.65;;
74551;SDS011;63025;55.472;38.432;2023-06-14T12:49:10;5.47;;;2.63;;
74551;SDS011;63025;55.472;38.432;2023-06-14T12:51:37;5.68;;;2.90;;
74551;SDS011;63025;55.472;38.432;2023-06-14T12:54:03;4.25;;;2.83;;
74551;SDS011;63025;55.472;38.432;2023-06-14T12:56:29;4.88;;;2.88;;
74551;SDS011;63025;55.472;38.432;2023-06-14T12:58:55;4.22;;;2.50;;
74551;SDS011;63025;55.472;38.432;2023-06-14T13:01:21;5.60;;;2.83;;
74551;SDS011;63025;55.472;38.432;2023-06-14T13:03:47;5.32;;;2.85;;
74551;SDS011;63025;55.472;38.432;2023-06-14T13:06:13;4.05;;;3.10;;
74551;SDS011;63025;55.472;38.432;2023-06-14T13:08:54;4.00;;;2.80;;
74551;SDS011;63025;55.472;38.432;2023-06-14T13:11:22;4.25;;;2.40;;
74551;SDS011;63025;55.472;38.432;2023-06-14T13:13:48;4.15;;;2.53;;
74551;SDS011;63025;55.472;38.432;2023-06-14T13:16:14;4.90;;;2.35;;
74551;SDS011;63025;55.472;38.432;2023-06-14T13:18:40;3.95;;;2.53;;
74551;SDS011;63025;55.472;38.432;2023-06-14T13:21:05;8.40;;;2.70;;
74551;SDS011;63025;55.472;38.432;2023-06-14T13:23:31;5.05;;;2.55;;
74551;SDS011;63025;55.472;38.432;2023-06-14T13:25:57;4.47;;;2.40;;
74551;SDS011;63025;55.472;38.432;2023-06-14T13:28:23;4.53;;;2.72;;
74551;SDS011;63025;55.472;38.432;2023-06-14T13:30:49;5.38;;;2.50;;
74551;SDS011;63025;55.472;38.432;2023-06-14T13:33:14;5.10;;;2.83;;
74551;SDS011;63025;55.472;38.432;2023-06-14T13:35:40;5.05;;;2.70;;
74551;SDS011;63025;55.472;38.432;2023-06-14T13:38:06;5.82;;;2.60;;
74551;SDS011;63025;55.472;38.432;2023-06-14T13:40:33;5.65;;;2.50;;
74551;SDS011;63025;55.472;38.432;2023-06-14T13:42:59;5.40;;;2.58;;
74551;SDS011;63025;55.472;38.432;2023-06-14T13:45:25;4.50;;;2.35;;
74551;SDS011;63025;55.472;38.432;2023-06-14T13:47:51;4.45;;;2.45;;
74551;SDS011;63025;55.472;38.432;2023-06-14T13:50:17;5.18;;;2.40;;
74551;SDS011;63025;55.472;38.432;2023-06-14T13:52:43;7.85;;;2.47;;
74551;SDS011;63025;55.472;38.432;2023-06-14T13:55:08;4.45;;;2.50;;
74551;SDS011;63025;55.472;38.432;2023-06-14T13:57:35;4.57;;;2.70;;
74551;SDS011;63025;55.472;38.432;2023-06-14T14:00:00;8.65;;;2.65;;
74551;SDS011;63025;55.472;38.432;2023-06-14T14:02:31;6.65;;;2.53;;
74551;SDS011;63025;55.472;38.432;2023-06-14T14:04:57;6.13;;;3.00;;
74551;SDS011;63025;55.472;38.432;2023-06-14T14:07:23;5.43;;;2.50;;
74551;SDS011;63025;55.472;38.432;2023-06-14T14:09:49;5.57;;;2.85;;
74551;SDS011;63025;55.472;38.432;2023-06-14T14:12:15;4.43;;;2.50;;
74551;SDS011;63025;55.472;38.432;2023-06-14T14:14:41;5.25;;;2.60;;
74551;SDS011;63025;55.472;38.432;2023-06-14T14:17:07;5.32;;;2.33;;
74551;SDS011;63025;55.472;38.432;2023-06-14T14:19:32;6.47;;;2.75;;
74551;SDS011;63025;55.472;38.432;2023-06-14T14:21:58;5.50;;;2.45;;
74551;SDS011;63025;55.472;38.432;2023-06-14T14:24:24;4.30;;;2.40;;
74551;SDS011;63025;55.472;38.432;2023-06-14T14:26:50;5.53;;;2.72;;
74551;SDS011;63025;55.472;38.432;2023-06-14T14:29:19;4.13;;;2.50;;
74551;SDS011;63025;55.472;38.432;2023-06-14T14:31:45;5.20;;;2.70;;
74551;SDS011;63025;55.472;38.432;2023-06-14T14:34:11;5.15;;;2.50;;
74551;SDS011;63025;55.472;38.432;2023-06-14T14:36:37;6.47;;;2.50;;
74551;SDS011;63025;55.472;38.432;2023-06-14T14:39:08;5.15;;;2.88;;
74551;SDS011;63025;55.472;38.432;2023-06-14T14:41:34;5.18;;;2.40;;
74551;SDS011;63025;55.472;38.432;2023-06-14T14:44:00;3.63;;;2.60;;
74551;SDS011;63025;55.472;38.432;2023-06-14T14:46:26;4.38;;;2.72;;
74551;SDS011;63025;55.472;38.432;2023-06-14T14:48:52;3.83;;;2.47;;
74551;SDS011;63025;55.472;38.432;2023-06-14T14:51:18;5.63;;;2.20;;
74551;SDS011;63025;55.472;38.432;2023-06-14T14:53:44;3.95;;;2.42;;
74551;SDS011;63025;55.472;38.432;2023-06-14T14:56:10;5.82;;;2.65;;
74551;SDS011;63025;55.472;38.432;2023-06-14T14:58:37;5.28;;;2.63;;